createdAt,value
2023-04-01T00:00:55.927Z,3.25
2023-04-01T00:03:22.818Z,3.15
2023-04-01T00:05:49.503Z,3.38
2023-04-01T00:08:15.941Z,3.20
2023-04-01T00:10:42.392Z,3.15
2023-04-01T00:13:08.950Z,3.17
2023-04-01T00:15:35.493Z,3.35
2023-04-01T00:18:01.939Z,3.22
2023-04-01T00:20:28.910Z,3.50
2023-04-01T00:22:55.302Z,2.92
2023-04-01T00:25:21.736Z,3.10
2023-04-01T00:27:48.154Z,3.80
2023-04-01T00:30:14.876Z,3.20
2023-04-01T00:32:41.295Z,3.58
2023-04-01T00:35:08.170Z,3.33
2023-04-01T00:37:36.217Z,3.67
2023-04-01T00:40:02.666Z,3.97
2023-04-01T00:42:29.088Z,3.42
2023-04-01T00:44:55.646Z,3.75
2023-04-01T00:47:22.660Z,3.45
2023-04-01T00:49:50.849Z,3.40
2023-04-01T00:52:19.442Z,3.28
2023-04-01T00:54:47.061Z,3.20
2023-04-01T00:57:21.288Z,3.75
2023-04-01T00:59:49.543Z,4.07
2023-04-01T01:02:16.386Z,3.72
2023-04-01T01:04:42.891Z,3.35
2023-04-01T01:07:13.414Z,3.88
2023-04-01T01:09:44.837Z,3.83
2023-04-01T01:12:16.446Z,3.42
2023-04-01T01:15:01.076Z,3.38
2023-04-01T01:17:57.936Z,3.95
2023-04-01T01:20:32.279Z,3.40
2023-04-01T01:23:07.846Z,3.08
2023-04-01T01:28:56.022Z,2.97
2023-04-01T01:31:26.308Z,3.00
2023-04-01T01:34:23.250Z,3.35
2023-04-01T01:36:51.133Z,3.25
2023-04-01T01:39:17.616Z,3.88
2023-04-01T01:41:44.175Z,3.22
2023-04-01T01:44:11.421Z,3.40
2023-04-01T01:46:37.928Z,3.42
2023-04-01T01:49:04.394Z,2.92
2023-04-01T01:51:30.798Z,3.58
2023-04-01T01:53:57.184Z,3.15
2023-04-01T01:56:24.660Z,3.30
2023-04-01T01:58:53.508Z,3.13
2023-04-01T02:01:27.716Z,3.40
2023-04-01T02:03:54.184Z,3.47
2023-04-01T02:06:22.877Z,2.95
2023-04-01T02:08:57.240Z,3.35
2023-04-01T02:11:27.364Z,3.45
2023-04-01T02:14:06.101Z,2.90
2023-04-01T02:16:50.545Z,3.38
2023-04-01T02:19:16.952Z,3.30
2023-04-01T02:21:43.353Z,3.08
2023-04-01T02:24:13.182Z,3.13
2023-04-01T02:26:39.616Z,2.92
2023-04-01T02:29:06.269Z,2.90
2023-04-01T02:31:32.721Z,2.85
2023-04-01T02:33:59.150Z,3.38
2023-04-01T02:36:25.613Z,3.08
2023-04-01T02:38:52.045Z,3.92
2023-04-01T02:41:18.480Z,4.07
2023-04-01T02:43:44.893Z,4.05
2023-04-01T02:46:11.320Z,4.53
2023-04-01T02:48:37.805Z,4.57
2023-04-01T02:51:04.287Z,4.85
2023-04-01T02:53:30.741Z,5.50
2023-04-01T02:55:57.166Z,4.68
2023-04-01T02:58:23.589Z,4.65
2023-04-01T03:00:50.040Z,4.57
2023-04-01T03:03:19.385Z,4.22
2023-04-01T03:05:45.874Z,4.43
2023-04-01T03:08:12.328Z,4.53
2023-04-01T03:10:38.738Z,4.35
2023-04-01T03:13:05.183Z,4.63
2023-04-01T03:15:31.879Z,4.43
2023-04-01T03:17:58.593Z,4.88
2023-04-01T03:20:25.033Z,4.80
2023-04-01T03:22:51.441Z,5.45
2023-04-01T03:25:18.639Z,4.43
2023-04-01T03:27:45.057Z,5.45
2023-04-01T03:30:11.829Z,4.95
2023-04-01T03:32:38.354Z,5.07
2023-04-01T03:35:05.291Z,5.10
2023-04-01T03:37:31.740Z,5.18
2023-04-01T03:39:58.225Z,5.22
2023-04-01T03:42:24.741Z,5.78
2023-04-01T03:44:51.217Z,5.38
2023-04-01T03:47:17.617Z,4.78
2023-04-01T03:49:44.086Z,5.63
2023-04-01T03:52:11.582Z,4.82
2023-04-01T03:54:38.197Z,4.47
2023-04-01T03:57:04.677Z,5.22
2023-04-01T03:59:31.152Z,4.43
2023-04-01T04:01:57.667Z,4.70
2023-04-01T04:04:24.126Z,5.30
2023-04-01T04:06:50.568Z,4.28
2023-04-01T04:09:16.999Z,4.15
2023-04-01T04:11:43.418Z,3.63
2023-04-01T04:14:09.894Z,4.13
2023-04-01T04:16:36.642Z,4.53
2023-04-01T04:19:03.925Z,3.90
2023-04-01T04:21:30.372Z,4.82
2023-04-01T04:23:56.804Z,4.60
2023-04-01T04:26:23.275Z,4.53
2023-04-01T04:28:49.728Z,4.63
2023-04-01T04:31:22.793Z,4.20
2023-04-01T04:33:49.405Z,4.68
2023-04-01T04:36:15.925Z,4.25
2023-04-01T04:38:42.550Z,4.68
2023-04-01T04:41:12.857Z,5.25
2023-04-01T04:43:40.301Z,4.30
2023-04-01T04:46:10.146Z,5.22
2023-04-01T04:48:36.608Z,4.60
2023-04-01T04:51:03.172Z,4.72
2023-04-01T04:53:29.730Z,5.18
2023-04-01T04:55:56.229Z,4.50
2023-04-01T04:58:22.687Z,5.38
2023-04-01T05:00:49.102Z,5.18
2023-04-01T05:03:15.784Z,4.03
2023-04-01T05:05:52.054Z,4.78
2023-04-01T05:08:18.480Z,3.95
2023-04-01T05:10:44.905Z,5.55
2023-04-01T05:13:11.587Z,5.30
2023-04-01T05:15:38.001Z,4.47
2023-04-01T05:18:04.592Z,4.60
2023-04-01T05:20:31.005Z,4.63
2023-04-01T05:22:58.079Z,4.47
2023-04-01T05:25:24.565Z,4.55
2023-04-01T05:27:50.970Z,4.15
2023-04-01T05:30:17.552Z,4.47
2023-04-01T05:32:44.000Z,4.15
2023-04-01T05:35:10.483Z,4.65
2023-04-01T05:37:37.028Z,4.55
2023-04-01T05:40:04.177Z,4.70
2023-04-01T05:42:30.610Z,4.30
2023-04-01T05:44:57.050Z,1.90
2023-04-01T05:47:23.649Z,1.25
2023-04-01T05:49:50.111Z,0.38
2023-04-01T05:52:16.541Z,0.35
2023-04-01T05:54:42.980Z,0.32
2023-04-01T05:57:09.420Z,0.28
2023-04-01T05:59:35.940Z,0.40
2023-04-01T06:02:02.352Z,0.50
2023-04-01T06:04:29.727Z,0.30
2023-04-01T06:06:56.200Z,0.40
2023-04-01T06:09:27.920Z,0.30
2023-04-01T06:12:08.668Z,0.32
2023-04-01T06:14:50.675Z,0.30
2023-04-01T06:17:46.857Z,0.45
2023-04-01T06:20:28.343Z,0.50
2023-04-01T06:23:16.147Z,0.55
2023-04-01T06:25:55.505Z,0.63
2023-04-01T06:28:40.731Z,0.80
2023-04-01T06:31:30.439Z,0.35
2023-04-01T06:34:08.868Z,0.40
2023-04-01T06:36:53.546Z,0.63
2023-04-01T06:39:42.614Z,0.73
2023-04-01T06:42:42.785Z,0.45
2023-04-01T06:45:31.311Z,0.47
2023-04-01T06:48:00.616Z,0.55
2023-04-01T06:50:34.263Z,0.50
2023-04-01T06:53:00.590Z,0.60
2023-04-01T06:55:36.140Z,0.47
2023-04-01T06:58:02.604Z,0.28
2023-04-01T07:00:32.490Z,0.52
2023-04-01T07:03:20.244Z,0.40
2023-04-01T07:05:46.840Z,0.30
2023-04-01T07:08:17.432Z,0.68
2023-04-01T07:11:08.581Z,0.40
2023-04-01T07:13:55.413Z,0.40
2023-04-01T07:16:35.522Z,0.20
2023-04-01T07:19:07.336Z,0.30
2023-04-01T07:21:41.203Z,0.38
2023-04-01T07:24:11.487Z,0.45
2023-04-01T07:26:37.999Z,0.30
2023-04-01T07:29:06.877Z,0.40
2023-04-01T07:32:07.296Z,0.60
2023-04-01T07:34:48.422Z,0.55
2023-04-01T07:37:21.765Z,0.38
2023-04-01T07:40:20.531Z,0.30
2023-04-01T07:43:08.514Z,0.50
2023-04-01T07:45:41.384Z,0.25
2023-04-01T07:48:39.082Z,0.40
2023-04-01T07:51:18.463Z,0.20
2023-04-01T07:53:58.768Z,0.30
2023-04-01T07:56:29.809Z,0.32
2023-04-01T07:58:59.143Z,0.20
2023-04-01T08:01:37.131Z,0.50
2023-04-01T08:04:15.678Z,0.30
2023-04-01T08:06:56.414Z,0.60
2023-04-01T08:10:04.428Z,0.30
2023-04-01T08:12:48.743Z,0.30
2023-04-01T08:15:28.390Z,0.40
2023-04-01T08:18:12.845Z,0.20
2023-04-01T08:20:43.130Z,0.20
2023-04-01T08:23:14.466Z,0.20
2023-04-01T08:25:45.728Z,0.30
2023-04-01T08:28:42.225Z,0.38
2023-04-01T08:31:30.506Z,0.20
2023-04-01T08:33:56.937Z,0.20
2023-04-01T08:36:32.347Z,0.20
2023-04-01T08:39:03.218Z,0.35
2023-04-01T08:42:00.692Z,0.28
2023-04-01T08:44:48.759Z,0.22
2023-04-01T08:47:35.623Z,0.28
2023-04-01T08:50:42.052Z,0.40
2023-04-01T08:53:27.186Z,0.20
2023-04-01T08:56:30.038Z,0.20
2023-04-01T08:59:15.365Z,0.30
2023-04-01T09:02:00.174Z,0.20
2023-04-01T09:05:11.477Z,0.20
2023-04-01T09:11:03.954Z,0.47
2023-04-01T09:14:22.897Z,0.40
2023-04-01T09:17:13.453Z,0.30
2023-04-01T09:19:58.093Z,0.43
2023-04-01T09:23:12.055Z,0.30
2023-04-01T09:26:15.723Z,0.20
2023-04-01T09:29:11.701Z,0.25
2023-04-01T09:31:45.969Z,0.20
2023-04-01T09:34:40.169Z,0.30
2023-04-01T09:37:34.070Z,0.43
2023-04-01T09:40:19.321Z,0.40
2023-04-01T09:42:46.850Z,0.35
2023-04-01T09:45:22.543Z,0.30
2023-04-01T09:50:43.293Z,0.20
2023-04-01T09:53:37.454Z,0.20
2023-04-01T09:56:09.819Z,0.40
2023-04-01T09:58:43.905Z,0.30
2023-04-01T10:01:50.174Z,0.43
2023-04-01T10:04:25.472Z,0.30
2023-04-01T10:07:10.300Z,0.30
2023-04-01T10:09:54.267Z,0.57
2023-04-01T10:12:48.715Z,0.32
2023-04-01T10:15:29.530Z,0.28
2023-04-01T10:17:59.840Z,0.45
2023-04-01T10:20:29.266Z,0.60
2023-04-01T10:23:03.623Z,0.57
2023-04-01T10:26:07.612Z,0.50
2023-04-01T10:28:48.926Z,0.28
2023-04-01T10:31:37.066Z,0.22
2023-04-01T10:34:23.690Z,0.22
2023-04-01T10:36:56.146Z,0.30
2023-04-01T10:39:35.315Z,0.20
2023-04-01T10:42:23.856Z,0.20
2023-04-01T10:45:07.732Z,0.25
2023-04-01T10:47:40.352Z,0.20
2023-04-01T10:50:17.033Z,0.20
2023-04-01T10:53:01.149Z,0.20
2023-04-01T10:55:45.003Z,0.10
2023-04-01T10:58:29.636Z,0.30
2023-04-01T11:01:31.415Z,0.20
2023-04-01T11:04:29.206Z,0.30
2023-04-01T11:07:17.418Z,0.20
2023-04-01T11:10:02.171Z,0.28
2023-04-01T11:12:50.368Z,0.20
2023-04-01T11:15:27.538Z,0.20
2023-04-01T11:18:01.532Z,0.22
2023-04-01T11:21:05.365Z,0.40
2023-04-01T11:24:03.899Z,0.32
2023-04-01T11:26:44.960Z,0.20
2023-04-01T11:29:33.152Z,0.40
2023-04-01T11:32:05.341Z,0.35
2023-04-01T11:34:59.228Z,0.30
2023-04-01T11:37:30.758Z,0.35
2023-04-01T11:40:34.029Z,0.40
2023-04-01T11:43:32.990Z,0.60
2023-04-01T11:46:09.416Z,0.63
2023-04-01T11:49:03.883Z,0.40
2023-04-01T11:51:54.768Z,0.60
2023-04-01T11:54:33.232Z,0.70
2023-04-01T11:57:19.835Z,0.65
2023-04-01T12:00:04.378Z,0.82
2023-04-01T12:02:57.349Z,0.95
2023-04-01T12:05:45.444Z,0.88
2023-04-01T12:08:22.334Z,0.90
2023-04-01T12:11:05.906Z,1.25
2023-04-01T12:14:02.257Z,0.95
2023-04-01T12:16:52.457Z,1.02
2023-04-01T12:19:21.265Z,1.13
2023-04-01T12:22:09.057Z,1.20
2023-04-01T12:24:47.545Z,1.70
2023-04-01T12:27:28.917Z,1.45
2023-04-01T12:30:07.466Z,1.55
2023-04-01T12:33:18.702Z,1.52
2023-04-01T12:39:02.122Z,1.50
2023-04-01T12:41:41.925Z,1.52
2023-04-01T12:44:32.798Z,1.92
2023-04-01T12:47:05.086Z,1.48
2023-04-01T12:49:48.164Z,2.13
2023-04-01T12:52:35.494Z,1.70
2023-04-01T12:55:40.610Z,2.00
2023-04-01T12:58:12.862Z,1.90
2023-04-01T13:00:58.181Z,1.95
2023-04-01T13:03:48.731Z,1.77
2023-04-01T13:06:47.056Z,2.50
2023-04-01T13:09:39.146Z,2.13
2023-04-01T13:12:28.656Z,2.00
2023-04-01T13:15:06.156Z,1.40
2023-04-01T13:17:51.188Z,1.60
2023-04-01T13:20:42.326Z,1.58
2023-04-01T13:23:26.886Z,1.73
2023-04-01T13:26:14.946Z,1.95
2023-04-01T13:28:52.554Z,1.30
2023-04-01T13:31:25.026Z,1.27
2023-04-01T13:34:06.601Z,1.80
2023-04-01T13:37:21.200Z,1.85
2023-04-01T13:40:03.269Z,1.40
2023-04-01T13:42:36.237Z,0.90
2023-04-01T13:45:15.853Z,1.10
2023-04-01T13:48:12.810Z,1.30
2023-04-01T13:50:54.049Z,1.15
2023-04-01T13:53:35.566Z,1.38
2023-04-01T13:56:04.930Z,1.70
2023-04-01T13:58:44.904Z,1.42
2023-04-01T14:01:30.786Z,1.90
2023-04-01T14:04:28.532Z,2.55
2023-04-01T14:07:32.303Z,1.60
2023-04-01T14:10:21.648Z,1.65
2023-04-01T14:12:56.833Z,1.65
2023-04-01T14:15:32.465Z,1.52
2023-04-01T14:18:21.398Z,1.58
2023-04-01T14:21:31.594Z,2.17
2023-04-01T14:24:25.476Z,1.73
2023-04-01T14:27:19.477Z,1.98
2023-04-01T14:29:54.749Z,2.00
2023-04-01T14:32:45.206Z,1.83
2023-04-01T14:35:37.617Z,1.92
2023-04-01T14:38:24.966Z,2.33
2023-04-01T14:41:01.521Z,2.15
2023-04-01T14:43:50.830Z,2.42
2023-04-01T14:46:39.178Z,2.63
2023-04-01T14:49:17.474Z,1.90
2023-04-01T14:51:43.979Z,1.95
2023-04-01T14:54:32.363Z,2.20
2023-04-01T14:57:15.947Z,2.60
2023-04-01T15:00:08.643Z,2.08
2023-04-01T15:03:13.151Z,2.13
2023-04-01T15:06:11.929Z,2.58
2023-04-01T15:09:01.274Z,3.22
2023-04-01T15:11:30.576Z,2.95
2023-04-01T15:14:06.276Z,2.53
2023-04-01T15:16:42.467Z,3.15
2023-04-01T15:19:27.655Z,2.22
2023-04-01T15:22:02.842Z,2.80
2023-04-01T15:25:08.245Z,2.53
2023-04-01T15:28:14.761Z,2.45
2023-04-01T15:30:56.371Z,2.88
2023-04-01T15:36:32.275Z,3.60
2023-04-01T15:39:15.658Z,2.85
2023-04-01T15:41:46.958Z,3.15
2023-04-01T15:44:28.705Z,3.00
2023-04-01T15:49:24.309Z,2.95
2023-04-01T15:51:59.868Z,2.45
2023-04-01T15:54:38.344Z,2.70
2023-04-01T15:57:07.627Z,3.50
2023-04-01T16:00:09.611Z,2.65
2023-04-01T16:02:49.131Z,3.58
2023-04-01T16:05:31.435Z,3.55
2023-04-01T16:08:20.586Z,2.88
2023-04-01T16:11:09.861Z,3.15
2023-04-01T16:13:44.400Z,2.72
2023-04-01T16:16:51.064Z,3.30
2023-04-01T16:19:32.785Z,3.33
2023-04-01T16:24:42.417Z,3.25
2023-04-01T16:27:14.937Z,2.90
2023-04-01T16:30:03.555Z,2.97
2023-04-01T16:32:45.643Z,2.92
2023-04-01T16:35:54.298Z,3.05
2023-04-01T16:38:47.362Z,3.38
2023-04-01T16:41:13.719Z,2.60
2023-04-01T16:43:50.326Z,3.03
2023-04-01T16:46:42.367Z,3.13
2023-04-01T16:49:11.658Z,2.85
2023-04-01T16:51:54.147Z,3.95
2023-04-01T16:54:40.751Z,3.45
2023-04-01T16:57:10.157Z,3.55
2023-04-01T16:59:38.539Z,3.08
2023-04-01T17:02:07.884Z,3.50
2023-04-01T17:04:52.190Z,3.55
2023-04-01T17:07:34.760Z,3.42
2023-04-01T17:10:21.923Z,3.10
2023-04-01T17:13:07.037Z,2.90
2023-04-01T17:15:52.191Z,2.75
2023-04-01T17:18:45.066Z,3.58
2023-04-01T17:21:14.724Z,2.78
2023-04-01T17:23:46.529Z,3.60
2023-04-01T17:26:21.951Z,3.13
2023-04-01T17:29:09.711Z,2.90
2023-04-01T17:31:44.696Z,2.95
2023-04-01T17:34:13.976Z,2.50
2023-04-01T17:36:58.717Z,2.70
2023-04-01T17:39:28.013Z,2.28
2023-04-01T17:42:18.667Z,2.90
2023-04-01T17:45:05.562Z,3.13
2023-04-01T17:47:38.093Z,2.63
2023-04-01T17:50:23.226Z,2.60
2023-04-01T17:53:02.346Z,2.60
2023-04-01T17:55:40.930Z,2.08
2023-04-01T17:58:22.477Z,2.08
2023-04-01T18:01:26.735Z,2.25
2023-04-01T18:03:55.962Z,2.00
2023-04-01T18:06:35.777Z,1.65
2023-04-01T18:09:11.118Z,1.40
2023-04-01T18:12:31.558Z,2.05
2023-04-01T18:15:19.596Z,1.92
2023-04-01T18:17:58.161Z,1.88
2023-04-01T18:20:44.943Z,1.48
2023-04-01T18:23:32.698Z,2.00
2023-04-01T18:26:34.614Z,1.80
2023-04-01T18:29:05.145Z,1.92
2023-04-01T18:31:37.649Z,2.05
2023-04-01T18:34:39.267Z,1.73
2023-04-01T18:37:20.762Z,1.75
2023-04-01T18:39:50.710Z,2.20
2023-04-01T18:42:44.877Z,2.03
2023-04-01T18:45:43.304Z,2.15
2023-04-01T18:48:32.571Z,1.98
2023-04-01T18:51:00.976Z,1.63
2023-04-01T18:53:32.328Z,2.15
2023-04-01T18:56:00.406Z,2.40
2023-04-01T18:58:32.901Z,1.73
2023-04-01T19:01:07.478Z,2.63
2023-04-01T19:03:42.178Z,2.15
2023-04-01T19:06:24.873Z,2.08
2023-04-01T19:08:52.083Z,2.05
2023-04-01T19:11:31.685Z,1.88
2023-04-01T19:14:25.994Z,2.22
2023-04-01T19:17:14.626Z,2.10
2023-04-01T19:19:50.022Z,2.10
2023-04-01T19:22:41.227Z,2.20
2023-04-01T19:25:16.648Z,1.85
2023-04-01T19:27:47.833Z,1.92
2023-04-01T19:30:20.252Z,2.13
2023-04-01T19:33:10.916Z,1.83
2023-04-01T19:36:06.680Z,1.63
2023-04-01T19:38:54.010Z,2.10
2023-04-01T19:41:30.349Z,2.10
2023-04-01T19:43:56.702Z,1.75
2023-04-01T19:46:34.036Z,1.88
2023-04-01T19:49:18.738Z,2.03
2023-04-01T19:51:59.924Z,1.73
2023-04-01T19:54:51.374Z,2.35
2023-04-01T19:57:47.309Z,1.90
2023-04-01T20:00:23.782Z,1.13
2023-04-01T20:02:56.617Z,2.17
2023-04-01T20:05:32.006Z,1.52
2023-04-01T20:08:10.121Z,1.67
2023-04-01T20:10:46.361Z,1.55
2023-04-01T20:14:00.039Z,1.60
2023-04-01T20:17:02.757Z,1.80
2023-04-01T20:19:54.811Z,1.63
2023-04-01T20:22:33.049Z,1.77
2023-04-01T20:25:06.070Z,2.08
2023-04-01T20:27:40.024Z,1.83
2023-04-01T20:30:06.420Z,1.48
2023-04-01T20:32:38.697Z,1.95
2023-04-01T20:35:36.866Z,1.70
2023-04-01T20:38:36.408Z,1.80
2023-04-01T20:41:35.690Z,1.90
2023-04-01T20:44:37.817Z,1.85
2023-04-01T20:47:10.238Z,1.80
2023-04-01T20:50:13.225Z,1.63
2023-04-01T20:52:43.660Z,1.80
2023-04-01T20:55:13.071Z,2.13
2023-04-01T20:57:57.644Z,1.48
2023-04-01T21:00:33.084Z,1.45
2023-04-01T21:03:30.026Z,1.17
2023-04-01T21:06:28.874Z,1.45
2023-04-01T21:09:27.487Z,1.05
2023-04-01T21:12:15.394Z,1.10
2023-04-01T21:15:19.179Z,1.00
2023-04-01T21:18:19.775Z,1.30
2023-04-01T21:21:16.497Z,1.50
2023-04-01T21:24:10.354Z,0.95
2023-04-01T21:27:09.067Z,1.15
2023-04-01T21:30:10.698Z,1.40
2023-04-01T21:33:08.129Z,1.08
2023-04-01T21:36:02.610Z,1.23
2023-04-01T21:38:34.751Z,1.60
2023-04-01T21:41:26.517Z,1.25
2023-04-01T21:44:40.533Z,1.48
2023-04-01T21:47:28.316Z,1.60
2023-04-01T21:50:28.571Z,1.98
2023-04-01T21:53:36.969Z,1.63
2023-04-01T21:56:28.193Z,1.63
2023-04-01T21:58:54.498Z,1.52
2023-04-01T22:01:32.961Z,1.70
2023-04-01T22:04:17.625Z,2.03
2023-04-01T22:06:51.205Z,1.42
2023-04-01T22:09:33.033Z,2.00
2023-04-01T22:15:08.779Z,1.13
2023-04-01T22:18:13.496Z,1.00
2023-04-01T22:21:10.278Z,0.75
2023-04-01T22:24:05.756Z,0.95
2023-04-01T22:26:38.270Z,0.68
2023-04-01T22:29:07.641Z,0.60
2023-04-01T22:32:11.880Z,1.15
2023-04-01T22:34:49.822Z,0.70
2023-04-01T22:37:16.161Z,1.00
2023-04-01T22:40:01.847Z,0.98
2023-04-01T22:43:07.020Z,1.05
2023-04-01T22:45:52.141Z,0.75
2023-04-01T22:48:45.844Z,1.13
2023-04-01T22:51:30.534Z,1.00
2023-04-01T22:54:15.629Z,0.70
2023-04-01T22:56:46.818Z,0.98
2023-04-01T22:59:22.887Z,1.10
2023-04-01T23:02:00.975Z,0.80
2023-04-01T23:04:32.885Z,0.90
2023-04-01T23:07:02.184Z,0.73
2023-04-01T23:09:32.728Z,0.65
2023-04-01T23:12:03.229Z,0.80
2023-04-01T23:14:55.967Z,0.73
2023-04-01T23:17:25.378Z,0.77
2023-04-01T23:20:10.516Z,0.50
2023-04-01T23:22:58.264Z,0.70
2023-04-01T23:28:16.552Z,0.77
2023-04-01T23:30:47.780Z,0.85
2023-04-01T23:33:19.885Z,0.65
2023-04-01T23:36:11.018Z,0.98
2023-04-01T23:38:43.924Z,0.85
2023-04-01T23:41:26.892Z,0.70
2023-04-01T23:43:57.406Z,0.45
2023-04-01T23:46:23.914Z,0.60
2023-04-01T23:48:50.421Z,1.10
2023-04-01T23:51:24.442Z,0.40
2023-04-01T23:53:58.337Z,0.90
2023-04-01T23:56:34.599Z,0.43
2023-04-01T23:59:01.042Z,0.68
